Time;durP1;ratioP1;P1;durP2;ratioP2;P2;SDS_P1;SDS_P2;PMS_P1;PMS_P2;Temp;Humidity;BMP_temperature;BMP_pressure;BME280_temperature;BME280_humidity;BME280_pressure;Samples;Min_cycle;Max_cycle;Signal;HPM_P1;HPM_P2
2022/12/03 00:01:04;;;;;;;4.30;1.20;;;27.00;99.90;;;;;;4935358;29;20184;-72
2022/12/03 00:03:34;;;;;;;3.70;1.33;;;27.20;99.90;;;;;;4935422;29;20495;-72
2022/12/03 00:06:01;;;;;;;5.50;1.20;;;26.70;99.90;;;;;;4935172;29;20549;-71
2022/12/03 00:08:29;;;;;;;5.53;1.20;;;26.70;99.90;;;;;;4934162;29;20188;-69
2022/12/03 00:10:56;;;;;;;3.53;1.30;;;27.30;99.90;;;;;;4935478;29;20216;-68
2022/12/03 00:13:24;;;;;;;3.37;1.10;;;28.20;99.90;;;;;;4935670;29;20236;-69
2022/12/03 00:15:51;;;;;;;5.33;1.47;;;28.60;96.70;;;;;;4935510;29;20181;-68
2022/12/03 00:18:18;;;;;;;29.80;2.60;;;28.90;94.30;;;;;;4935493;29;20185;-69
2022/12/03 00:20:46;;;;;;;6.03;1.30;;;28.70;94.20;;;;;;4935127;29;20513;-69
2022/12/03 00:23:13;;;;;;;3.20;1.10;;;28.50;89.50;;;;;;4935369;29;20184;-71
2022/12/03 00:25:41;;;;;;;5.43;1.43;;;28.70;89.00;;;;;;4935429;29;20827;-70
2022/12/03 00:28:08;;;;;;;6.10;1.10;;;29.20;86.20;;;;;;4933978;29;20249;-69
2022/12/03 00:30:35;;;;;;;4.50;1.10;;;29.50;84.70;;;;;;4935389;29;20307;-70
2022/12/03 00:33:03;;;;;;;3.10;1.13;;;29.50;78.50;;;;;;4934351;29;20188;-71
2022/12/03 00:35:30;;;;;;;5.67;1.20;;;27.90;82.50;;;;;;4936521;29;20212;-70
2022/12/03 00:37:59;;;;;;;2.87;1.17;;;26.50;91.30;;;;;;4938915;29;20639;-70
2022/12/03 00:40:26;;;;;;;5.07;1.30;;;26.30;94.00;;;;;;4937252;29;20189;-70
2022/12/03 00:42:54;;;;;;;5.50;1.57;;;27.20;94.40;;;;;;4938981;29;20184;-70
2022/12/03 00:45:21;;;;;;;5.77;1.20;;;27.60;92.20;;;;;;4938671;29;20212;-69
2022/12/03 00:47:49;;;;;;;7.73;1.37;;;27.70;90.70;;;;;;4938396;29;20236;-73
2022/12/03 00:50:16;;;;;;;4.23;1.40;;;27.90;89.60;;;;;;4938234;29;20624;-72
2022/12/03 00:52:43;;;;;;;7.83;1.57;;;28.60;93.70;;;;;;4938439;29;20264;-70
2022/12/03 00:55:11;;;;;;;5.43;1.07;;;28.70;77.50;;;;;;4938540;29;20677;-72
2022/12/03 00:57:38;;;;;;;3.43;1.10;;;28.10;85.70;;;;;;4938233;29;20236;-72
2022/12/03 01:00:06;;;;;;;4.23;1.20;;;27.40;83.10;;;;;;4938481;29;20177;-71
2022/12/03 01:02:35;;;;;;;5.83;1.30;;;27.20;92.90;;;;;;4938396;29;20177;-70
2022/12/03 01:05:03;;;;;;;5.47;1.60;;;27.00;86.60;;;;;;4921493;29;20181;-70
2022/12/03 01:07:31;;;;;;;4.73;1.30;;;26.50;90.00;;;;;;4938438;29;20181;-69
2022/12/03 01:09:58;;;;;;;3.43;1.50;;;26.60;92.80;;;;;;4936707;29;20216;-71
2022/12/03 01:12:25;;;;;;;3.90;1.30;;;26.60;91.50;;;;;;4938223;29;20236;-69
2022/12/03 01:14:53;;;;;;;4.07;1.37;;;26.20;91.10;;;;;;4937900;29;20180;-71
2022/12/03 01:17:20;;;;;;;3.27;1.40;;;25.80;94.00;;;;;;4937797;29;20177;-72
2022/12/03 01:19:51;;;;;;;4.57;1.30;;;25.60;96.30;;;;;;4938233;29;20189;-73
2022/12/03 01:22:18;;;;;;;8.37;2.17;;;25.50;99.90;;;;;;4921403;29;20207;-70
2022/12/03 01:24:46;;;;;;;9.10;1.87;;;25.00;99.90;;;;;;4937912;29;20172;-69
2022/12/03 01:27:13;;;;;;;8.43;2.00;;;24.90;99.90;;;;;;4938048;29;20572;-71
2022/12/03 01:29:41;;;;;;;9.70;1.93;;;24.80;99.90;;;;;;4937572;29;20223;-72
2022/12/03 01:32:15;;;;;;;5.90;1.77;;;24.80;99.90;;;;;;4937718;29;20207;-71
2022/12/03 01:34:47;;;;;;;6.17;2.00;;;25.40;99.90;;;;;;4937964;29;20188;-71
2022/12/03 01:37:15;;;;;;;5.63;1.53;;;26.80;99.90;;;;;;4937952;29;20184;-72
2022/12/03 01:39:43;;;;;;;7.00;1.60;;;27.60;99.90;;;;;;4936376;29;20177;-73
2022/12/03 01:42:21;;;;;;;4.47;1.60;;;28.50;99.90;;;;;;4937740;29;20579;-73
2022/12/03 01:44:51;;;;;;;3.30;1.40;;;29.00;99.90;;;;;;4937691;29;20341;-70
2022/12/03 01:47:21;;;;;;;7.70;1.67;;;29.30;99.90;;;;;;4936959;29;20232;-72
2022/12/03 01:50:26;;;;;;;3.93;1.37;;;29.70;96.10;;;;;;4937509;29;20299;-69
2022/12/03 01:52:57;;;;;;;6.70;1.33;;;29.70;79.80;;;;;;4937587;29;20742;-69
2022/12/03 01:55:26;;;;;;;7.47;1.20;;;29.10;90.00;;;;;;4937565;29;20577;-69
2022/12/03 01:57:56;;;;;;;6.00;1.90;;;29.20;98.20;;;;;;4937124;29;20181;-69
2022/12/03 02:00:26;;;;;;;4.10;1.47;;;29.60;90.90;;;;;;4937293;29;20267;-69
2022/12/03 02:02:57;;;;;;;7.90;1.97;;;29.00;92.10;;;;;;4937037;29;20537;-70
2022/12/03 02:05:30;;;;;;;5.70;1.53;;;28.10;90.40;;;;;;4937152;29;20169;-70
2022/12/03 02:07:58;;;;;;;3.90;1.77;;;27.20;97.30;;;;;;4937292;29;20185;-69
2022/12/03 02:10:31;;;;;;;6.23;1.47;;;26.90;94.90;;;;;;4937019;29;20236;-70
2022/12/03 02:13:10;;;;;;;3.67;1.40;;;26.60;97.60;;;;;;4937119;29;20662;-70
2022/12/03 02:15:41;;;;;;;6.17;1.70;;;26.30;99.90;;;;;;4936978;29;20188;-70
2022/12/03 02:18:09;;;;;;;6.83;2.00;;;26.30;99.90;;;;;;4936959;29;20685;-69
2022/12/03 02:21:03;;;;;;;7.43;1.97;;;26.20;99.90;;;;;;4936849;29;20184;-69
2022/12/03 02:24:03;;;;;;;3.77;1.53;;;26.20;99.90;;;;;;4930717;29;20195;-69
2022/12/03 02:26:30;;;;;;;4.73;1.37;;;26.10;99.90;;;;;;4935472;29;20184;-69
2022/12/03 02:28:58;;;;;;;6.57;1.67;;;26.00;99.90;;;;;;4935160;29;20606;-68
2022/12/03 02:31:26;;;;;;;6.17;1.30;;;25.60;99.90;;;;;;4936637;29;20240;-69
2022/12/03 02:33:53;;;;;;;6.40;1.53;;;25.40;99.90;;;;;;4936656;29;20569;-69
2022/12/03 02:36:21;;;;;;;4.40;1.53;;;25.40;99.90;;;;;;4936531;29;20338;-69
2022/12/03 02:38:50;;;;;;;7.93;1.73;;;25.60;99.90;;;;;;4936326;29;20177;-69
2022/12/03 02:44:07;;;;;;;6.33;1.60;;;26.20;99.90;;;;;;4936296;29;20236;-69
2022/12/03 02:46:35;;;;;;;6.40;1.67;;;26.30;99.90;;;;;;4935895;29;20180;-68
2022/12/03 02:49:04;;;;;;;7.53;1.47;;;26.10;99.90;;;;;;4936396;29;20286;-68
2022/12/03 02:51:33;;;;;;;4.57;1.43;;;26.00;99.90;;;;;;4936396;29;20214;-69
2022/12/03 02:54:01;;;;;;;7.00;1.50;;;25.80;99.90;;;;;;4936567;29;20188;-70
2022/12/03 02:56:31;;;;;;;4.23;1.60;;;25.70;99.90;;;;;;4936487;29;20255;-69
2022/12/03 02:59:02;;;;;;;6.90;1.50;;;25.70;99.90;;;;;;4935993;29;20207;-69
2022/12/03 03:01:31;;;;;;;6.13;1.80;;;25.70;99.90;;;;;;4936622;29;20203;-72
2022/12/03 03:04:01;;;;;;;9.23;1.40;;;25.30;99.90;;;;;;4919921;29;20188;-70
2022/12/03 03:06:28;;;;;;;9.07;1.97;;;25.20;99.90;;;;;;4936474;29;20196;-70
2022/12/03 03:08:56;;;;;;;6.27;1.50;;;25.20;99.90;;;;;;4936369;29;20179;-69
2022/12/03 03:11:24;;;;;;;6.40;1.37;;;26.00;99.90;;;;;;4936283;29;20544;-69
2022/12/03 03:13:52;;;;;;;3.57;1.40;;;26.50;99.90;;;;;;4936272;29;20181;-71
2022/12/03 03:16:19;;;;;;;3.33;1.10;;;27.10;99.90;;;;;;4936416;29;20319;-71
2022/12/03 03:18:47;;;;;;;7.30;1.97;;;27.40;99.90;;;;;;4936140;29;20181;-68
2022/12/03 03:21:14;;;;;;;3.53;1.43;;;27.60;99.90;;;;;;4936206;29;20191;-71
2022/12/03 03:23:42;;;;;;;6.90;2.10;;;27.10;99.90;;;;;;4936192;29;20184;-69
2022/12/03 03:26:11;;;;;;;8.20;1.53;;;26.50;99.90;;;;;;4934720;29;20207;-70
2022/12/03 03:28:47;;;;;;;6.27;1.67;;;26.60;99.90;;;;;;4934692;29;20184;-70
2022/12/03 03:31:17;;;;;;;3.93;1.37;;;27.10;99.90;;;;;;4935982;29;20588;-70
2022/12/03 03:33:47;;;;;;;6.03;1.70;;;27.30;99.90;;;;;;4936373;29;20173;-69
2022/12/03 03:36:16;;;;;;;4.10;1.20;;;27.60;99.90;;;;;;4936022;29;20176;-69
2022/12/03 03:38:43;;;;;;;7.10;1.50;;;27.60;99.90;;;;;;4936019;29;20180;-67
2022/12/03 03:41:11;;;;;;;6.57;1.07;;;27.50;99.90;;;;;;4935956;29;20635;-69
2022/12/03 03:43:40;;;;;;;6.40;1.93;;;27.40;99.90;;;;;;4935894;29;20261;-70
2022/12/03 03:46:08;;;;;;;3.83;1.33;;;26.90;99.90;;;;;;4935575;29;20260;-69
2022/12/03 03:48:36;;;;;;;6.60;1.50;;;26.90;99.90;;;;;;4935735;29;20236;-68
2022/12/03 03:51:08;;;;;;;3.97;1.20;;;26.70;99.90;;;;;;4935590;29;20216;-69
2022/12/03 03:53:38;;;;;;;6.37;1.47;;;26.80;99.90;;;;;;4936036;29;20627;-69
2022/12/03 03:56:06;;;;;;;4.60;1.20;;;26.90;99.90;;;;;;4935820;29;20271;-69
2022/12/03 03:58:34;;;;;;;7.57;1.80;;;27.20;99.90;;;;;;4935813;29;20180;-69
2022/12/03 04:01:04;;;;;;;5.20;1.33;;;27.20;99.90;;;;;;4935592;29;20263;-69
2022/12/03 04:03:33;;;;;;;4.97;1.83;;;27.50;99.90;;;;;;4935569;29;20635;-69
2022/12/03 04:06:00;;;;;;;7.03;1.57;;;27.60;99.90;;;;;;4935575;29;20188;-69
2022/12/03 04:08:28;;;;;;;3.00;1.10;;;27.60;99.90;;;;;;4935424;29;20201;-69
2022/12/03 04:13:40;;;;;;;5.80;1.77;;;27.70;99.90;;;;;;4938978;29;20256;-68
2022/12/03 04:16:08;;;;;;;7.13;1.60;;;28.00;99.90;;;;;;4939294;29;20208;-70
2022/12/03 04:18:44;;;;;;;4.40;1.50;;;27.80;99.90;;;;;;4938990;29;20184;-69
2022/12/03 04:24:06;;;;;;;8.47;1.93;;;27.60;99.90;;;;;;4939498;29;20670;-69
2022/12/03 04:29:20;;;;;;;4.43;1.20;;;27.80;99.90;;;;;;4939009;29;20230;-70
2022/12/03 04:37:18;;;;;;;6.37;1.80;;;28.10;99.90;;;;;;4939196;29;20199;-69
2022/12/03 04:39:45;;;;;;;4.57;1.10;;;27.70;99.90;;;;;;4939050;29;20227;-69
2022/12/03 04:42:13;;;;;;;4.13;1.33;;;27.30;99.90;;;;;;4938648;29;20183;-68
2022/12/03 04:44:40;;;;;;;3.30;1.37;;;27.30;99.90;;;;;;4938430;29;20639;-68
2022/12/03 04:47:19;;;;;;;8.23;1.47;;;27.70;99.90;;;;;;4938480;29;20225;-68
2022/12/03 04:49:48;;;;;;;7.47;1.50;;;27.50;99.90;;;;;;4938284;29;20208;-70
2022/12/03 04:52:18;;;;;;;6.17;1.43;;;27.80;99.90;;;;;;4938574;29;20271;-72
2022/12/03 04:54:46;;;;;;;5.27;1.23;;;28.00;99.90;;;;;;4938810;29;20183;-69
2022/12/03 04:57:14;;;;;;;5.37;1.53;;;28.00;99.90;;;;;;4938531;29;20532;-70
2022/12/03 04:59:41;;;;;;;6.30;1.80;;;27.80;99.90;;;;;;4938169;29;20224;-70
2022/12/03 05:02:09;;;;;;;4.40;1.60;;;28.10;99.90;;;;;;4938781;29;20176;-73
2022/12/03 05:04:36;;;;;;;7.57;1.57;;;27.40;99.90;;;;;;4938453;29;20232;-70
2022/12/03 05:07:04;;;;;;;5.20;1.30;;;27.30;99.90;;;;;;4939016;29;20204;-72
2022/12/03 05:09:31;;;;;;;5.10;1.63;;;27.40;99.90;;;;;;4939132;29;20239;-71
2022/12/03 05:11:59;;;;;;;5.63;1.67;;;27.10;99.90;;;;;;4938589;29;20270;-73
2022/12/03 05:14:26;;;;;;;9.37;1.73;;;26.90;99.90;;;;;;4937935;29;20176;-69
2022/12/03 05:16:53;;;;;;;6.93;1.37;;;27.10;99.90;;;;;;4937852;29;20264;-70
2022/12/03 05:20:40;;;;;;;6.60;1.30;;;27.20;99.90;;;;;;4937748;29;20181;-69
2022/12/03 05:22:08;;;;;;;5.90;1.30;;;27.10;99.90;;;;;;4937034;29;20232;-69
2022/12/03 05:24:35;;;;;;;5.70;1.63;;;27.10;99.90;;;;;;4937600;29;20185;-69
2022/12/03 05:27:03;;;;;;;3.50;1.70;;;27.40;99.90;;;;;;4937909;29;20215;-68
2022/12/03 05:29:30;;;;;;;3.90;1.60;;;27.50;99.90;;;;;;4937827;29;20240;-71
2022/12/03 05:31:57;;;;;;;5.33;1.90;;;27.30;99.90;;;;;;4936349;29;20295;-69
2022/12/03 05:34:25;;;;;;;4.97;1.37;;;27.10;99.90;;;;;;4937803;29;20177;-71
2022/12/03 05:36:52;;;;;;;4.50;1.90;;;27.00;99.90;;;;;;4937758;29;20185;-70
2022/12/03 05:39:20;;;;;;;5.27;1.50;;;27.00;99.90;;;;;;4936386;29;20185;-70
2022/12/03 05:44:32;;;;;;;6.57;2.10;;;27.40;99.90;;;;;;4937940;29;20191;-69
2022/12/03 05:47:00;;;;;;;4.40;1.80;;;27.30;99.90;;;;;;4937424;29;20224;-70
2022/12/03 05:49:27;;;;;;;5.03;2.00;;;27.10;99.90;;;;;;4937349;29;20203;-69
2022/12/03 05:51:54;;;;;;;3.63;2.00;;;26.70;99.90;;;;;;4937253;29;20188;-69
2022/12/03 05:54:23;;;;;;;3.83;1.87;;;26.90;99.90;;;;;;4937352;29;20177;-69
2022/12/03 05:56:51;;;;;;;4.47;1.90;;;26.80;99.90;;;;;;4937470;29;20184;-69
2022/12/03 05:59:18;;;;;;;6.53;1.83;;;27.00;99.90;;;;;;4937313;29;20227;-69
2022/12/03 06:01:46;;;;;;;5.87;2.47;;;26.60;99.90;;;;;;4937288;29;20187;-67
2022/12/03 06:04:13;;;;;;;5.00;2.20;;;26.30;99.90;;;;;;4936899;29;20177;-69
2022/12/03 06:06:41;;;;;;;6.23;2.50;;;26.20;99.90;;;;;;4937033;29;20172;-69
2022/12/03 06:09:08;;;;;;;5.83;2.30;;;26.20;99.90;;;;;;4937488;29;20177;-70
2022/12/03 06:11:36;;;;;;;11.50;3.90;;;26.40;99.90;;;;;;4936975;29;20185;-69
2022/12/03 06:14:04;;;;;;;11.00;3.90;;;26.30;99.90;;;;;;4937206;29;20260;-69
2022/12/03 06:16:31;;;;;;;6.23;3.27;;;26.40;99.90;;;;;;4936935;29;20187;-69
2022/12/03 06:18:58;;;;;;;5.50;3.73;;;26.30;99.90;;;;;;4936824;29;20545;-69
2022/12/03 06:21:26;;;;;;;8.20;3.57;;;26.20;99.90;;;;;;4936904;29;20176;-69
2022/12/03 06:23:53;;;;;;;6.80;4.23;;;26.10;99.90;;;;;;4936747;29;20185;-69
2022/12/03 06:26:21;;;;;;;6.60;4.50;;;26.10;99.90;;;;;;4936929;29;20181;-69
2022/12/03 06:28:48;;;;;;;9.43;4.23;;;25.90;99.90;;;;;;4936689;29;20176;-69
2022/12/03 06:31:15;;;;;;;6.03;3.70;;;25.80;99.90;;;;;;4936599;29;20220;-70
2022/12/03 06:33:43;;;;;;;7.17;3.50;;;25.90;99.90;;;;;;4935839;29;20253;-70
2022/12/03 06:36:10;;;;;;;5.47;3.23;;;25.80;99.90;;;;;;4936810;29;20184;-69
2022/12/03 06:38:37;;;;;;;7.87;3.20;;;26.00;99.90;;;;;;4936783;29;20177;-70
2022/12/03 06:41:05;;;;;;;7.70;5.07;;;26.10;99.90;;;;;;4936609;29;20177;-70
2022/12/03 06:43:32;;;;;;;10.80;5.03;;;26.00;99.90;;;;;;4936688;29;20180;-69
2022/12/03 06:46:00;;;;;;;7.43;3.93;;;25.80;99.90;;;;;;4936214;29;20569;-70
2022/12/03 06:48:27;;;;;;;6.73;4.37;;;25.50;99.90;;;;;;4935017;29;20277;-69
2022/12/03 06:50:54;;;;;;;8.33;5.03;;;25.40;99.90;;;;;;4936327;29;20264;-69
2022/12/03 06:53:22;;;;;;;7.43;3.73;;;25.40;99.90;;;;;;4936531;29;20180;-71
2022/12/03 06:55:49;;;;;;;5.93;3.73;;;25.50;99.90;;;;;;4937050;29;20218;-73
2022/12/03 06:58:17;;;;;;;6.20;2.80;;;25.30;99.90;;;;;;4938436;29;20168;-69
2022/12/03 07:00:45;;;;;;;12.13;6.33;;;25.30;99.90;;;;;;4937953;29;20173;-70
2022/12/03 07:03:13;;;;;;;12.73;7.17;;;25.20;99.90;;;;;;4938747;29;20544;-72
2022/12/03 07:05:40;;;;;;;15.60;7.53;;;24.80;99.90;;;;;;4920949;29;20189;-68
2022/12/03 07:08:07;;;;;;;10.80;7.13;;;24.90;99.90;;;;;;4935008;29;20176;-69
2022/12/03 07:10:35;;;;;;;6.90;5.77;;;25.10;99.90;;;;;;4936211;29;20599;-73
2022/12/03 07:13:02;;;;;;;7.17;6.17;;;25.00;99.90;;;;;;4936489;29;20173;-72
2022/12/03 07:15:30;;;;;;;10.37;7.77;;;24.80;99.90;;;;;;4936433;29;20188;-72
2022/12/03 07:17:57;;;;;;;7.97;7.17;;;24.60;99.90;;;;;;4936145;29;20228;-68
2022/12/03 07:20:24;;;;;;;12.23;6.60;;;24.60;99.90;;;;;;4936061;29;20613;-69
2022/12/03 07:22:52;;;;;;;8.03;7.17;;;24.60;99.90;;;;;;4936233;29;20234;-67
2022/12/03 07:25:19;;;;;;;12.13;10.17;;;24.70;99.90;;;;;;4936114;29;20195;-68
2022/12/03 07:27:47;;;;;;;12.97;10.47;;;24.80;99.90;;;;;;4935996;29;20631;-68
2022/12/03 07:30:15;;;;;;;13.23;10.53;;;24.50;99.90;;;;;;4935859;29;20224;-69
2022/12/03 07:32:43;;;;;;;17.00;12.80;;;24.30;99.90;;;;;;4935895;29;20200;-69
2022/12/03 07:35:10;;;;;;;19.27;14.83;;;24.00;99.90;;;;;;4936029;29;20183;-70
2022/12/03 07:37:38;;;;;;;15.97;13.23;;;24.10;99.90;;;;;;4936043;29;20183;-68
2022/12/03 07:40:10;;;;;;;15.23;12.90;;;24.00;99.90;;;;;;4935829;29;20198;-68
2022/12/03 07:42:37;;;;;;;17.43;12.93;;;23.90;99.90;;;;;;4935862;29;20177;-69
2022/12/03 07:45:05;;;;;;;21.40;18.50;;;23.70;99.90;;;;;;4938187;29;20184;-69
2022/12/03 07:47:32;;;;;;;22.20;18.60;;;23.60;99.90;;;;;;4938380;29;20343;-68
2022/12/03 07:50:00;;;;;;;19.13;15.83;;;23.60;99.90;;;;;;4939803;29;20212;-70
2022/12/03 07:52:27;;;;;;;14.07;11.37;;;23.60;99.90;;;;;;4939734;29;20176;-70
2022/12/03 07:54:54;;;;;;;13.60;8.80;;;23.60;99.90;;;;;;4939580;29;20200;-71
2022/12/03 07:57:22;;;;;;;14.67;8.83;;;23.50;99.90;;;;;;4939579;29;20319;-69
2022/12/03 07:59:49;;;;;;;8.03;6.57;;;23.50;99.90;;;;;;4939803;29;20188;-70
2022/12/03 08:02:17;;;;;;;8.00;5.63;;;23.40;99.90;;;;;;4939752;29;20212;-69
2022/12/03 08:04:45;;;;;;;7.57;4.73;;;23.20;99.90;;;;;;4939276;29;20177;-68
2022/12/03 08:07:13;;;;;;;6.07;2.83;;;23.30;99.90;;;;;;4939548;29;20542;-68
2022/12/03 08:09:41;;;;;;;5.50;1.80;;;23.20;99.90;;;;;;4939203;29;20227;-68
2022/12/03 08:12:16;;;;;;;4.40;1.70;;;23.00;99.90;;;;;;4939212;29;20185;-69
2022/12/03 08:14:44;;;;;;;5.23;2.03;;;22.90;99.90;;;;;;4937997;29;20276;-69
2022/12/03 08:17:17;;;;;;;4.83;1.43;;;22.70;99.90;;;;;;4939316;29;20185;-68
2022/12/03 08:19:47;;;;;;;5.00;1.53;;;22.70;99.90;;;;;;4922659;29;20191;-70
2022/12/03 08:22:15;;;;;;;5.30;1.90;;;22.50;99.90;;;;;;4939075;29;20190;-69
2022/12/03 08:24:43;;;;;;;4.53;1.90;;;22.30;99.90;;;;;;4939070;29;20190;-68
2022/12/03 08:27:19;;;;;;;5.40;1.37;;;22.10;99.90;;;;;;4939174;29;20180;-69
2022/12/03 08:29:48;;;;;;;3.77;1.60;;;22.00;99.90;;;;;;4938739;29;20196;-68
2022/12/03 08:32:19;;;;;;;2.37;1.10;;;21.90;99.90;;;;;;4939018;29;20745;-68
2022/12/03 08:34:46;;;;;;;3.87;0.90;;;21.80;99.90;;;;;;4938977;29;20191;-68
2022/12/03 08:37:18;;;;;;;2.73;1.30;;;21.70;99.90;;;;;;4938663;29;20185;-69
2022/12/03 08:39:47;;;;;;;4.73;1.40;;;21.70;99.90;;;;;;4938651;29;20614;-69
2022/12/03 08:42:41;;;;;;;4.67;1.43;;;21.60;99.90;;;;;;4938774;29;20184;-70
2022/12/03 08:45:38;;;;;;;3.10;1.20;;;21.50;99.90;;;;;;4938492;29;20189;-69
2022/12/03 08:48:23;;;;;;;4.97;1.30;;;21.40;99.90;;;;;;4938635;29;20589;-69
2022/12/03 08:50:51;;;;;;;4.20;1.43;;;21.20;99.90;;;;;;4939084;29;20215;-69
2022/12/03 08:53:40;;;;;;;4.00;1.37;;;21.10;99.90;;;;;;4938412;29;20184;-68
2022/12/03 08:56:29;;;;;;;2.77;1.23;;;21.00;99.90;;;;;;4937531;29;20201;-70
2022/12/03 08:59:20;;;;;;;4.23;1.63;;;20.90;99.90;;;;;;4938391;29;20191;-69
2022/12/03 09:01:50;;;;;;;3.17;1.30;;;20.90;99.90;;;;;;4938420;29;20189;-69
2022/12/03 09:04:36;;;;;;;5.47;1.80;;;20.80;99.90;;;;;;4938152;29;20184;-68
2022/12/03 09:07:04;;;;;;;2.27;1.07;;;20.80;99.90;;;;;;4938527;29;20177;-68
2022/12/03 09:09:32;;;;;;;3.80;1.50;;;20.70;99.90;;;;;;4938618;29;20208;-70
2022/12/03 09:12:01;;;;;;;3.17;1.40;;;20.70;99.90;;;;;;4938031;29;20668;-70
2022/12/03 09:14:28;;;;;;;4.33;1.43;;;20.70;99.90;;;;;;4938051;29;20176;-69
2022/12/03 09:16:56;;;;;;;7.27;1.80;;;20.60;99.90;;;;;;4938065;29;20199;-68
2022/12/03 09:19:26;;;;;;;2.97;0.93;;;20.50;99.90;;;;;;4937943;29;20218;-69
2022/12/03 09:21:54;;;;;;;6.53;1.00;;;20.40;99.90;;;;;;4937919;29;20176;-68
2022/12/03 09:24:22;;;;;;;3.80;0.90;;;20.40;99.90;;;;;;4937907;29;20282;-70
2022/12/03 09:26:49;;;;;;;5.03;1.03;;;20.40;99.90;;;;;;4937931;29;20176;-69
2022/12/03 09:29:17;;;;;;;4.87;1.27;;;20.30;99.90;;;;;;4937839;29;20188;-68
2022/12/03 09:31:44;;;;;;;3.60;0.90;;;20.30;99.90;;;;;;4937821;29;20191;-69
2022/12/03 09:34:12;;;;;;;2.47;1.17;;;20.30;99.90;;;;;;4938191;29;20251;-70
2022/12/03 09:36:39;;;;;;;1.43;0.80;;;20.20;99.90;;;;;;4938068;29;20185;-68
2022/12/03 09:39:07;;;;;;;2.40;0.93;;;20.20;99.90;;;;;;4937733;29;20187;-69
2022/12/03 09:41:34;;;;;;;3.67;1.40;;;20.20;99.90;;;;;;4937670;29;20254;-68
2022/12/03 09:44:02;;;;;;;3.80;1.13;;;20.10;99.90;;;;;;4937532;29;20187;-70
2022/12/03 09:46:30;;;;;;;4.77;1.40;;;20.10;99.90;;;;;;4937759;29;20630;-69
2022/12/03 09:48:58;;;;;;;3.33;1.20;;;19.90;99.90;;;;;;4937438;29;20311;-70
2022/12/03 09:51:32;;;;;;;2.63;1.20;;;19.90;99.90;;;;;;4937839;29;20211;-68
2022/12/03 09:54:04;;;;;;;6.63;1.30;;;19.90;99.90;;;;;;4937504;29;20184;-69
2022/12/03 09:56:35;;;;;;;6.97;1.53;;;19.90;99.90;;;;;;4937626;29;20550;-68
2022/12/03 09:59:06;;;;;;;12.03;1.70;;;19.90;99.90;;;;;;4935967;29;20272;-69
2022/12/03 10:01:34;;;;;;;4.80;1.40;;;19.80;99.90;;;;;;4937753;29;20181;-69
2022/12/03 10:04:02;;;;;;;3.87;1.87;;;19.80;99.90;;;;;;4937112;29;20207;-69
2022/12/03 10:06:30;;;;;;;12.90;1.57;;;19.80;99.90;;;;;;4937260;29;20249;-68
2022/12/03 10:08:58;;;;;;;2.83;1.27;;;19.80;99.90;;;;;;4935746;29;20186;-71
2022/12/03 10:11:28;;;;;;;7.00;1.30;;;19.80;99.90;;;;;;4937092;29;20212;-70
2022/12/03 10:14:14;;;;;;;4.13;1.27;;;19.70;99.90;;;;;;4895291;29;20212;-69
2022/12/03 10:16:42;;;;;;;4.83;1.33;;;19.70;99.90;;;;;;4935675;29;20283;-70
2022/12/03 10:19:25;;;;;;;5.00;1.53;;;19.60;99.90;;;;;;4937061;29;20192;-69
2022/12/03 10:21:54;;;;;;;3.67;1.40;;;19.60;99.90;;;;;;4937052;29;20172;-69
2022/12/03 10:24:27;;;;;;;5.53;1.30;;;19.50;99.90;;;;;;4936920;29;20557;-69
2022/12/03 10:27:04;;;;;;;3.47;1.30;;;19.40;99.90;;;;;;4936703;29;20227;-69
2022/12/03 10:29:34;;;;;;;4.07;1.40;;;19.30;99.90;;;;;;4936979;29;20195;-69
2022/12/03 10:32:07;;;;;;;6.10;1.67;;;19.30;99.90;;;;;;4936734;29;20276;-69
2022/12/03 10:34:36;;;;;;;5.23;1.53;;;19.30;99.90;;;;;;4936903;29;20225;-70
2022/12/03 10:37:10;;;;;;;7.27;1.43;;;19.30;99.90;;;;;;4936576;29;20272;-70
2022/12/03 10:39:57;;;;;;;7.53;1.40;;;19.30;99.90;;;;;;4936536;29;20240;-69
2022/12/03 10:42:30;;;;;;;7.20;1.77;;;19.30;99.90;;;;;;4936829;29;20266;-69
2022/12/03 10:45:17;;;;;;;6.53;1.80;;;19.30;99.90;;;;;;4936630;29;20541;-69
2022/12/03 10:48:26;;;;;;;6.27;1.57;;;19.20;99.90;;;;;;4936636;29;20264;-69
2022/12/03 10:50:53;;;;;;;5.50;1.50;;;19.10;99.90;;;;;;4936385;29;20574;-69
2022/12/03 10:53:26;;;;;;;5.53;1.47;;;19.00;99.90;;;;;;4937023;29;20631;-69
2022/12/03 10:55:58;;;;;;;6.17;2.33;;;18.90;99.90;;;;;;4936487;29;20184;-69
2022/12/03 10:58:33;;;;;;;5.27;1.00;;;18.80;99.90;;;;;;4936814;29;20195;-69
2022/12/03 11:01:02;;;;;;;10.13;1.63;;;18.80;99.90;;;;;;4936379;29;20589;-69
2022/12/03 11:03:34;;;;;;;3.90;1.53;;;18.70;99.90;;;;;;4936686;29;20178;-69
2022/12/03 11:06:02;;;;;;;7.57;1.50;;;18.60;99.90;;;;;;4934880;29;20215;-69
2022/12/03 11:08:35;;;;;;;6.30;1.77;;;18.60;99.90;;;;;;4936499;29;20170;-68
2022/12/03 11:11:16;;;;;;;5.87;1.57;;;18.60;99.90;;;;;;4936190;29;20697;-69
2022/12/03 11:13:50;;;;;;;8.07;1.37;;;18.60;99.90;;;;;;4936817;29;20182;-68
2022/12/03 11:16:40;;;;;;;4.50;1.53;;;18.50;99.90;;;;;;4936314;29;20180;-68
2022/12/03 11:19:16;;;;;;;7.30;1.50;;;18.40;99.90;;;;;;4907698;29;20191;-68
2022/12/03 11:22:04;;;;;;;4.27;1.60;;;18.40;99.90;;;;;;4936109;29;20176;-68
2022/12/03 11:24:33;;;;;;;5.37;1.80;;;18.30;99.90;;;;;;4936228;29;20188;-68
2022/12/03 11:27:01;;;;;;;4.00;1.40;;;18.30;99.90;;;;;;4936441;29;20184;-69
2022/12/03 11:29:48;;;;;;;8.73;1.67;;;18.20;99.90;;;;;;4936017;29;20184;-69
2022/12/03 11:32:43;;;;;;;2.57;1.33;;;18.20;99.90;;;;;;4936138;29;20231;-69
2022/12/03 11:35:48;;;;;;;8.83;1.83;;;18.30;99.90;;;;;;4936273;29;20182;-68
2022/12/03 11:38:40;;;;;;;5.50;1.23;;;18.30;99.90;;;;;;4909229;29;20212;-69
2022/12/03 11:41:25;;;;;;;5.17;1.47;;;18.20;99.90;;;;;;4936245;29;20267;-70
2022/12/03 11:43:55;;;;;;;4.20;1.50;;;18.10;99.90;;;;;;4936200;29;20184;-68
2022/12/03 11:46:23;;;;;;;5.27;1.50;;;18.00;99.90;;;;;;4936504;29;20177;-69
2022/12/03 11:48:54;;;;;;;3.83;1.30;;;17.90;99.90;;;;;;4935717;29;20229;-68
2022/12/03 11:51:26;;;;;;;4.43;1.40;;;17.80;99.90;;;;;;4934569;29;20232;-69
2022/12/03 11:53:58;;;;;;;6.33;1.53;;;17.70;99.90;;;;;;4935786;29;20236;-68
2022/12/03 11:56:29;;;;;;;4.33;1.40;;;17.70;99.90;;;;;;4935941;29;20204;-68
2022/12/03 11:59:11;;;;;;;4.40;2.07;;;17.60;99.90;;;;;;4935649;29;20232;-68
2022/12/03 12:01:41;;;;;;;6.90;1.50;;;17.50;99.90;;;;;;4936011;29;20593;-69
2022/12/03 12:04:27;;;;;;;4.47;1.70;;;17.50;99.90;;;;;;4935721;29;20177;-70
2022/12/03 12:06:55;;;;;;;4.97;1.43;;;17.40;99.90;;;;;;4936111;29;20269;-69
2022/12/03 12:09:51;;;;;;;4.27;1.30;;;17.40;99.90;;;;;;4935497;29;20225;-70
2022/12/03 12:12:36;;;;;;;3.83;1.97;;;17.30;99.90;;;;;;4934560;29;20204;-71
2022/12/03 12:15:38;;;;;;;6.60;1.70;;;17.40;99.90;;;;;;4935592;29;20541;-70
2022/12/03 12:18:33;;;;;;;4.10;1.53;;;17.40;99.90;;;;;;4934253;29;20202;-72
2022/12/03 12:21:37;;;;;;;5.20;1.77;;;17.40;99.90;;;;;;4934442;29;20200;-73
2022/12/03 12:24:28;;;;;;;5.03;1.40;;;17.40;99.90;;;;;;4935477;29;20635;-72
2022/12/03 12:26:58;;;;;;;5.37;2.00;;;17.40;99.90;;;;;;4935849;29;20205;-73
2022/12/03 12:29:26;;;;;;;5.53;1.40;;;17.40;99.90;;;;;;4936115;29;20236;-72
2022/12/03 12:32:15;;;;;;;6.67;1.60;;;17.50;99.90;;;;;;4937650;29;20647;-71
2022/12/03 12:34:53;;;;;;;4.63;1.50;;;17.50;99.90;;;;;;4932914;29;20194;-72
2022/12/03 12:37:28;;;;;;;8.03;1.90;;;17.50;99.90;;;;;;4920099;29;20180;-70
2022/12/03 12:39:57;;;;;;;4.30;1.70;;;17.50;99.90;;;;;;4919831;29;20180;-74
2022/12/03 12:42:37;;;;;;;7.50;1.90;;;17.60;99.90;;;;;;4931706;29;20177;-72
2022/12/03 12:45:16;;;;;;;5.13;2.07;;;17.50;99.90;;;;;;4941288;29;20262;-70
2022/12/03 12:48:02;;;;;;;5.43;1.97;;;17.50;99.90;;;;;;4946308;29;20227;-72
2022/12/03 12:50:32;;;;;;;6.17;2.00;;;17.40;99.90;;;;;;4938862;29;20208;-70
2022/12/03 12:53:10;;;;;;;7.00;2.07;;;17.40;99.90;;;;;;4937965;29;20188;-69
2022/12/03 12:55:41;;;;;;;3.53;1.67;;;17.30;99.90;;;;;;4938578;29;20188;-69
2022/12/03 12:58:18;;;;;;;6.10;2.30;;;17.30;99.90;;;;;;4938566;29;20235;-69
2022/12/03 13:00:55;;;;;;;3.83;1.27;;;17.20;99.90;;;;;;4921017;29;20725;-69
2022/12/03 13:03:26;;;;;;;5.87;1.57;;;17.30;99.90;;;;;;4938771;29;20180;-70
2022/12/03 13:05:56;;;;;;;5.00;1.60;;;17.20;99.90;;;;;;4938381;29;20184;-69
2022/12/03 13:08:36;;;;;;;5.00;1.40;;;17.10;99.90;;;;;;4938026;29;20216;-69
2022/12/03 13:11:05;;;;;;;3.67;1.67;;;17.10;99.90;;;;;;4938707;29;20252;-69
2022/12/03 13:13:41;;;;;;;5.57;2.03;;;17.00;99.90;;;;;;4938153;29;20185;-71
2022/12/03 13:16:20;;;;;;;6.27;2.17;;;17.00;99.90;;;;;;4937985;29;20201;-69
2022/12/03 13:18:53;;;;;;;10.23;2.30;;;17.00;99.90;;;;;;4938165;29;20176;-69
2022/12/03 13:21:36;;;;;;;7.43;2.00;;;16.90;99.90;;;;;;4938138;29;20202;-69
2022/12/03 13:24:37;;;;;;;5.83;2.20;;;16.90;99.90;;;;;;4937705;29;20176;-70
2022/12/03 13:27:18;;;;;;;5.07;1.70;;;16.80;99.90;;;;;;4937766;29;20185;-69